Time;durP1;ratioP1;P1;durP2;ratioP2;P2;SDS_P1;SDS_P2;PMS_P1;PMS_P2;Temp;Humidity;BMP_temperature;BMP_pressure;BME280_temperature;BME280_humidity;BME280_pressure;Samples;Min_cycle;Max_cycle;Signal;HPM_P1;HPM_P2
2022/08/15 00:00:14;;;;;;;5.30;4.27;;;;;;;;;;4975591;28;20468;-78
2022/08/15 00:02:43;;;;;;;6.70;6.10;;;;;;;;;;4987505;28;22027;-78
2022/08/15 00:05:23;;;;;;;4.43;4.03;;;;;;;;;;4969906;28;20436;-79
2022/08/15 00:08:04;;;;;;;4.97;4.23;;;;;;;;;;4967197;28;21206;-78
2022/08/15 00:10:30;;;;;;;4.77;4.37;;;;;;;;;;4956317;28;20445;-78
2022/08/15 00:13:09;;;;;;;5.23;4.50;;;;;;;;;;4989627;28;20440;-78
2022/08/15 00:15:35;;;;;;;5.50;5.00;;;;;;;;;;4992847;28;20590;-78
2022/08/15 00:18:02;;;;;;;4.60;4.20;;;;;;;;;;5001508;28;20916;-78
2022/08/15 00:20:28;;;;;;;5.20;4.80;;;;;;;;;;4971449;28;20217;-77
2022/08/15 00:22:54;;;;;;;5.00;4.60;;;;;;;;;;4998266;28;20915;-77
2022/08/15 00:25:20;;;;;;;5.30;4.00;;;;;;;;;;4995683;28;21761;-77
2022/08/15 00:27:47;;;;;;;5.10;4.60;;;;;;;;;;4998380;28;20456;-78
2022/08/15 00:30:17;;;;;;;5.60;5.10;;;;;;;;;;4962957;28;20452;-78
2022/08/15 00:32:46;;;;;;;6.43;4.60;;;;;;;;;;4996207;28;20458;-77
2022/08/15 00:38:17;;;;;;;5.50;5.00;;;;;;;;;;4998193;28;20449;-77
2022/08/15 00:43:37;;;;;;;5.20;4.07;;;;;;;;;;4975387;28;20478;-77
2022/08/15 00:46:04;;;;;;;7.47;5.47;;;;;;;;;;4978706;28;20475;-76
2022/08/15 00:48:42;;;;;;;8.90;5.10;;;;;;;;;;4981858;28;20439;-79
2022/08/15 00:51:11;;;;;;;4.77;4.37;;;;;;;;;;4994224;28;20616;-79
2022/08/15 00:53:41;;;;;;;5.37;4.87;;;;;;;;;;4984181;28;20653;-77
2022/08/15 00:56:07;;;;;;;6.10;5.50;;;;;;;;;;4991896;28;20587;-81
2022/08/15 00:58:33;;;;;;;5.40;4.70;;;;;;;;;;4966203;28;21158;-78
2022/08/15 01:00:59;;;;;;;5.27;4.60;;;;;;;;;;4990713;28;20436;-77
2022/08/15 01:03:30;;;;;;;5.40;4.90;;;;;;;;;;4974316;28;20440;-79
2022/08/15 01:05:59;;;;;;;5.97;4.93;;;;;;;;;;4987176;28;20447;-77
2022/08/15 01:08:27;;;;;;;5.47;5.07;;;;;;;;;;4997553;28;20498;-78
2022/08/15 01:10:54;;;;;;;6.00;5.00;;;;;;;;;;4980431;28;20452;-78
2022/08/15 01:13:55;;;;;;;6.70;5.03;;;;;;;;;;4958115;28;20497;-78
2022/08/15 01:16:24;;;;;;;5.83;5.30;;;;;;;;;;4972769;28;20443;-76
2022/08/15 01:18:50;;;;;;;5.47;5.07;;;;;;;;;;4977986;28;20455;-78
2022/08/15 01:21:34;;;;;;;5.20;4.80;;;;;;;;;;4981714;28;20451;-79
2022/08/15 01:24:13;;;;;;;5.33;4.70;;;;;;;;;;4995526;28;20978;-79
2022/08/15 01:26:40;;;;;;;5.67;5.17;;;;;;;;;;4961885;28;20471;-77
2022/08/15 01:29:06;;;;;;;4.90;4.40;;;;;;;;;;4997228;28;20443;-77
2022/08/15 01:31:32;;;;;;;5.53;5.07;;;;;;;;;;4957996;28;20438;-77
2022/08/15 01:33:58;;;;;;;5.60;5.10;;;;;;;;;;4985653;28;20463;-78
2022/08/15 01:36:26;;;;;;;5.90;5.40;;;;;;;;;;4974901;28;20762;-78
2022/08/15 01:38:55;;;;;;;5.60;5.03;;;;;;;;;;4987934;28;21173;-78
2022/08/15 01:41:41;;;;;;;6.23;5.07;;;;;;;;;;4967275;28;20432;-77
2022/08/15 01:44:21;;;;;;;5.90;5.30;;;;;;;;;;4982036;28;20468;-77
2022/08/15 01:46:49;;;;;;;5.47;4.97;;;;;;;;;;4951849;28;20444;-77
2022/08/15 01:49:18;;;;;;;5.20;4.70;;;;;;;;;;4993929;28;20432;-78
2022/08/15 01:51:44;;;;;;;5.47;4.97;;;;;;;;;;4961501;28;20444;-77
2022/08/15 01:54:15;;;;;;;5.20;4.70;;;;;;;;;;4975364;28;20793;-77
2022/08/15 01:56:42;;;;;;;5.50;5.00;;;;;;;;;;4965863;28;20188;-78
2022/08/15 01:59:12;;;;;;;6.83;4.93;;;;;;;;;;4986784;28;20507;-77
2022/08/15 02:01:40;;;;;;;6.50;5.37;;;;;;;;;;4973279;28;21656;-79
2022/08/15 02:04:06;;;;;;;4.80;4.30;;;;;;;;;;4981036;28;20440;-77
2022/08/15 02:06:32;;;;;;;4.90;4.50;;;;;;;;;;4974829;28;21453;-77
2022/08/15 02:08:58;;;;;;;4.87;4.10;;;;;;;;;;4998204;28;21016;-78
2022/08/15 02:11:25;;;;;;;8.00;5.13;;;;;;;;;;4943746;28;21294;-76
2022/08/15 02:13:54;;;;;;;6.40;5.00;;;;;;;;;;4996753;28;20444;-79
2022/08/15 02:16:35;;;;;;;6.60;5.10;;;;;;;;;;4966351;28;20444;-78
2022/08/15 02:19:07;;;;;;;5.73;4.93;;;;;;;;;;4997106;28;20476;-77
2022/08/15 02:21:33;;;;;;;6.87;4.83;;;;;;;;;;4978288;28;21084;-77
2022/08/15 02:23:59;;;;;;;6.70;4.60;;;;;;;;;;4998869;28;20450;-77
2022/08/15 02:26:25;;;;;;;6.23;4.30;;;;;;;;;;4991865;28;20882;-77
2022/08/15 02:28:51;;;;;;;8.10;4.70;;;;;;;;;;4997541;28;20516;-77
2022/08/15 02:31:19;;;;;;;6.70;4.80;;;;;;;;;;4991172;28;21114;-78
2022/08/15 02:33:53;;;;;;;4.83;4.40;;;;;;;;;;4994211;28;20428;-77
2022/08/15 02:36:19;;;;;;;5.10;4.43;;;;;;;;;;4995873;28;20455;-77
2022/08/15 02:38:48;;;;;;;4.40;4.00;;;;;;;;;;5000257;28;20467;-78
2022/08/15 02:41:20;;;;;;;4.23;3.93;;;;;;;;;;4969819;28;21207;-78
2022/08/15 02:43:46;;;;;;;8.27;4.60;;;;;;;;;;4998472;28;20467;-77
2022/08/15 02:46:19;;;;;;;4.97;4.40;;;;;;;;;;4967943;28;20443;-77
2022/08/15 02:48:46;;;;;;;5.13;4.23;;;;;;;;;;5002711;28;20470;-77
2022/08/15 02:51:24;;;;;;;5.17;4.40;;;;;;;;;;4965509;28;20526;-79
2022/08/15 02:53:56;;;;;;;6.90;4.50;;;;;;;;;;5001056;28;21005;-79
2022/08/15 02:56:23;;;;;;;5.73;5.13;;;;;;;;;;4968433;28;20963;-78
2022/08/15 02:58:49;;;;;;;4.60;3.90;;;;;;;;;;4986342;28;20463;-79
2022/08/15 03:01:19;;;;;;;6.80;4.50;;;;;;;;;;4956716;28;20501;-78
2022/08/15 03:03:48;;;;;;;5.87;4.53;;;;;;;;;;4982131;28;20440;-78
2022/08/15 03:06:15;;;;;;;3.67;3.30;;;;;;;;;;4974854;28;20816;-78
2022/08/15 03:08:41;;;;;;;4.57;3.63;;;;;;;;;;5007427;28;20481;-79
2022/08/15 03:11:08;;;;;;;4.30;3.80;;;;;;;;;;4986173;28;20443;-77
2022/08/15 03:13:34;;;;;;;6.13;5.33;;;;;;;;;;5002295;28;20439;-77
2022/08/15 03:16:01;;;;;;;8.10;4.50;;;;;;;;;;4984944;28;20443;-78
2022/08/15 03:18:28;;;;;;;5.77;4.00;;;;;;;;;;4986565;28;20746;-79
2022/08/15 03:23:49;;;;;;;4.50;3.90;;;;;;;;;;5002723;28;20478;-78
2022/08/15 03:26:18;;;;;;;5.40;3.80;;;;;;;;;;4961635;28;20676;-79
2022/08/15 03:28:45;;;;;;;6.90;3.50;;;;;;;;;;4992322;28;20435;-78
2022/08/15 03:31:17;;;;;;;8.93;4.30;;;;;;;;;;4981184;28;20483;-78
2022/08/15 03:34:04;;;;;;;4.57;4.13;;;;;;;;;;4980106;28;20479;-78
2022/08/15 03:36:33;;;;;;;4.07;3.67;;;;;;;;;;4986222;28;21085;-78
2022/08/15 03:39:01;;;;;;;6.63;4.20;;;;;;;;;;5004660;28;20474;-77
2022/08/15 03:41:28;;;;;;;4.17;3.77;;;;;;;;;;4982300;28;21079;-77
2022/08/15 03:43:56;;;;;;;5.30;4.00;;;;;;;;;;5005709;28;20455;-78
2022/08/15 03:46:22;;;;;;;4.43;3.93;;;;;;;;;;4982061;28;20584;-78
2022/08/15 03:51:36;;;;;;;4.80;3.90;;;;;;;;;;4974194;28;20427;-76
2022/08/15 03:54:02;;;;;;;4.97;4.17;;;;;;;;;;4989643;28;20546;-80
2022/08/15 03:56:33;;;;;;;5.43;4.93;;;;;;;;;;5008363;28;20431;-79
2022/08/15 03:58:59;;;;;;;8.80;4.50;;;;;;;;;;4986396;28;20544;-79
2022/08/15 04:01:27;;;;;;;5.83;3.90;;;;;;;;;;5004689;28;20432;-78
2022/08/15 04:03:53;;;;;;;7.40;4.73;;;;;;;;;;4988247;28;20447;-78
2022/08/15 04:06:22;;;;;;;6.27;4.47;;;;;;;;;;5007335;28;20445;-78
2022/08/15 04:08:49;;;;;;;4.80;4.10;;;;;;;;;;4981259;28;20456;-78
2022/08/15 04:11:42;;;;;;;4.27;3.80;;;;;;;;;;5004765;28;20437;-78
2022/08/15 04:14:32;;;;;;;7.43;3.73;;;;;;;;;;4984643;28;20527;-78
2022/08/15 04:17:03;;;;;;;5.33;4.10;;;;;;;;;;4950590;28;20425;-77
2022/08/15 04:19:32;;;;;;;4.40;3.73;;;;;;;;;;5002218;28;20484;-77
2022/08/15 04:25:09;;;;;;;7.17;4.17;;;;;;;;;;4996550;28;20513;-77
2022/08/15 04:27:35;;;;;;;4.63;4.13;;;;;;;;;;5001292;28;20479;-78
2022/08/15 04:30:02;;;;;;;6.37;4.20;;;;;;;;;;4998500;28;20440;-78
2022/08/15 04:32:28;;;;;;;3.83;3.43;;;;;;;;;;4998852;28;20521;-78
2022/08/15 04:34:54;;;;;;;4.53;4.00;;;;;;;;;;4982357;28;21104;-78
2022/08/15 04:37:30;;;;;;;4.17;3.57;;;;;;;;;;5000468;28;21186;-78
2022/08/15 04:39:56;;;;;;;4.00;3.60;;;;;;;;;;4979855;28;20896;-78
2022/08/15 04:42:24;;;;;;;5.00;3.30;;;;;;;;;;4990870;28;20458;-78
2022/08/15 04:44:51;;;;;;;5.83;5.20;;;;;;;;;;4972282;28;20456;-79
2022/08/15 04:47:17;;;;;;;4.03;3.43;;;;;;;;;;4978198;28;20444;-79
2022/08/15 04:50:14;;;;;;;4.10;3.00;;;;;;;;;;4976779;28;20448;-79
2022/08/15 04:55:50;;;;;;;3.40;2.77;;;;;;;;;;4984655;28;20471;-78
2022/08/15 04:58:16;;;;;;;3.43;2.97;;;;;;;;;;4987001;28;20444;-78
2022/08/15 05:00:53;;;;;;;4.93;2.90;;;;;;;;;;4990573;28;20763;-78
2022/08/15 05:03:20;;;;;;;5.90;3.07;;;;;;;;;;4982419;28;20495;-79
2022/08/15 05:05:48;;;;;;;3.27;2.97;;;;;;;;;;4967333;28;20450;-80
2022/08/15 05:08:14;;;;;;;5.13;3.17;;;;;;;;;;4992023;28;20532;-78
2022/08/15 05:10:40;;;;;;;5.60;3.40;;;;;;;;;;4969551;28;20451;-77
2022/08/15 05:13:16;;;;;;;3.33;3.03;;;;;;;;;;4998052;28;20237;-79
2022/08/15 05:15:43;;;;;;;3.70;2.70;;;;;;;;;;4985606;28;20446;-79
2022/08/15 05:18:09;;;;;;;4.00;3.30;;;;;;;;;;4992226;28;20439;-79
2022/08/15 05:20:35;;;;;;;4.53;3.00;;;;;;;;;;4957527;28;20472;-79
2022/08/15 05:23:01;;;;;;;4.80;3.03;;;;;;;;;;4997999;28;20437;-79
2022/08/15 05:25:53;;;;;;;9.80;3.30;;;;;;;;;;4979722;28;20867;-79
2022/08/15 05:28:20;;;;;;;4.43;2.57;;;;;;;;;;4964153;28;20197;-79
2022/08/15 05:30:46;;;;;;;4.20;2.50;;;;;;;;;;4973022;28;20452;-79
2022/08/15 05:33:14;;;;;;;4.37;3.30;;;;;;;;;;4953083;28;20495;-78
2022/08/15 05:35:54;;;;;;;;;;;;;;;;;;;;;
2022/08/15 05:38:21;;;;;;;4.60;3.10;;;;;;;;;;4972328;28;20440;-79
2022/08/15 05:41:06;;;;;;;3.77;2.63;;;;;;;;;;4991064;28;21009;-80
2022/08/15 05:43:36;;;;;;;3.10;2.70;;;;;;;;;;4989531;28;20440;-79
2022/08/15 05:46:22;;;;;;;4.70;2.80;;;;;;;;;;4979478;28;20872;-78
2022/08/15 05:48:49;;;;;;;4.23;2.83;;;;;;;;;;4988209;28;20432;-78
2022/08/15 05:51:28;;;;;;;3.30;2.50;;;;;;;;;;4945146;28;20531;-80
2022/08/15 05:54:03;;;;;;;4.40;2.60;;;;;;;;;;4966336;28;20432;-80
2022/08/15 05:56:48;;;;;;;4.53;3.30;;;;;;;;;;4957000;28;21079;-80
2022/08/15 05:59:18;;;;;;;3.13;2.60;;;;;;;;;;4997873;28;20460;-79
2022/08/15 06:01:47;;;;;;;4.93;3.30;;;;;;;;;;4962520;28;21286;-80
2022/08/15 06:04:38;;;;;;;2.93;2.50;;;;;;;;;;4981099;28;20424;-79
2022/08/15 06:07:22;;;;;;;4.03;3.50;;;;;;;;;;4993881;28;20479;-78
2022/08/15 06:10:23;;;;;;;3.07;2.77;;;;;;;;;;4986440;28;20440;-77
2022/08/15 06:13:02;;;;;;;4.80;3.00;;;;;;;;;;4888239;29;20471;-76
2022/08/15 06:15:38;;;;;;;3.17;2.60;;;;;;;;;;4913634;29;20443;-77
2022/08/15 06:18:08;;;;;;;3.73;2.37;;;;;;;;;;4993481;28;20663;-77
2022/08/15 06:23:57;;;;;;;6.47;2.97;;;;;;;;;;4977762;28;20618;-77
2022/08/15 06:26:27;;;;;;;4.80;2.93;;;;;;;;;;5005685;28;20433;-79
2022/08/15 06:29:17;;;;;;;2.97;2.40;;;;;;;;;;4980264;28;20445;-80
2022/08/15 06:31:59;;;;;;;3.47;3.10;;;;;;;;;;4999521;28;20432;-77
2022/08/15 06:34:55;;;;;;;2.80;2.47;;;;;;;;;;4972132;28;20436;-79
2022/08/15 06:37:43;;;;;;;3.77;2.90;;;;;;;;;;4987899;28;20479;-77
2022/08/15 06:40:29;;;;;;;6.00;3.00;;;;;;;;;;4986034;28;20464;-80
2022/08/15 06:42:55;;;;;;;2.90;2.60;;;;;;;;;;4985119;28;20507;-80
2022/08/15 06:45:22;;;;;;;3.57;2.33;;;;;;;;;;4947060;28;20448;-80
2022/08/15 06:47:48;;;;;;;6.80;3.87;;;;;;;;;;4998090;28;21046;-78
2022/08/15 06:50:43;;;;;;;4.33;3.10;;;;;;;;;;4973950;28;20448;-77
2022/08/15 06:53:35;;;;;;;2.83;2.40;;;;;;;;;;4999836;28;20507;-78
2022/08/15 06:59:23;;;;;;;7.03;3.00;;;;;;;;;;4977451;28;20539;-79
2022/08/15 07:05:07;;;;;;;3.27;2.70;;;;;;;;;;4976618;28;20985;-80
2022/08/15 07:14:01;;;;;;;3.33;2.67;;;;;;;;;;4944597;28;20448;-81
2022/08/15 07:17:04;;;;;;;3.80;2.50;;;;;;;;;;5006233;28;20513;-80
2022/08/15 07:19:43;;;;;;;3.47;3.00;;;;;;;;;;4968302;28;20585;-79
2022/08/15 07:25:13;;;;;;;4.63;3.30;;;;;;;;;;4938834;28;20524;-79
2022/08/15 07:28:00;;;;;;;3.70;2.50;;;;;;;;;;4974867;28;20878;-80
2022/08/15 07:30:44;;;;;;;3.37;2.77;;;;;;;;;;4979776;28;20442;-78
2022/08/15 07:33:11;;;;;;;2.73;2.37;;;;;;;;;;4972959;28;20503;-77
2022/08/15 07:35:37;;;;;;;3.00;2.70;;;;;;;;;;4985731;28;20466;-78
2022/08/15 07:38:09;;;;;;;5.70;2.60;;;;;;;;;;4987599;28;20443;-79
2022/08/15 07:40:53;;;;;;;3.07;2.50;;;;;;;;;;5000960;28;20554;-79
2022/08/15 07:43:25;;;;;;;6.17;2.90;;;;;;;;;;4991692;28;20436;-79
2022/08/15 07:46:05;;;;;;;3.50;2.40;;;;;;;;;;4976667;28;20780;-77
2022/08/15 07:48:41;;;;;;;3.67;2.67;;;;;;;;;;4975513;28;20443;-77
2022/08/15 07:51:09;;;;;;;2.83;2.20;;;;;;;;;;4975214;28;20446;-76
2022/08/15 07:53:35;;;;;;;2.90;2.30;;;;;;;;;;4980500;28;20509;-76
2022/08/15 07:56:14;;;;;;;2.73;2.30;;;;;;;;;;4958760;28;20452;-80
2022/08/15 07:58:41;;;;;;;4.77;2.20;;;;;;;;;;5005082;28;20440;-79
2022/08/15 08:01:15;;;;;;;3.60;2.10;;;;;;;;;;4959979;28;20458;-79
2022/08/15 08:03:44;;;;;;;2.80;2.50;;;;;;;;;;5002972;28;20434;-81
2022/08/15 08:06:20;;;;;;;5.57;2.00;;;;;;;;;;4972710;28;20459;-80
2022/08/15 08:11:50;;;;;;;2.67;2.20;;;;;;;;;;4997135;28;20447;-81
2022/08/15 08:14:35;;;;;;;2.60;2.40;;;;;;;;;;4965517;28;20522;-78
2022/08/15 08:17:22;;;;;;;2.70;1.87;;;;;;;;;;4987475;28;20424;-78
2022/08/15 08:20:22;;;;;;;4.00;2.37;;;;;;;;;;4998956;28;20842;-82
2022/08/15 08:23:13;;;;;;;2.20;1.83;;;;;;;;;;5004671;28;20432;-81
2022/08/15 08:25:45;;;;;;;4.13;2.30;;;;;;;;;;4989910;28;20452;-80
2022/08/15 08:28:11;;;;;;;5.00;1.93;;;;;;;;;;5008221;28;20424;-80
2022/08/15 08:30:40;;;;;;;4.53;2.50;;;;;;;;;;4986636;28;20474;-80
2022/08/15 08:33:20;;;;;;;5.70;2.30;;;;;;;;;;4995490;28;20943;-79
2022/08/15 08:35:56;;;;;;;2.87;2.17;;;;;;;;;;4968299;28;20455;-80
2022/08/15 08:38:29;;;;;;;3.60;2.50;;;;;;;;;;4991858;28;20487;-78
2022/08/15 08:44:19;;;;;;;4.30;2.70;;;;;;;;;;4988390;28;20434;-78
2022/08/15 08:46:54;;;;;;;3.10;2.50;;;;;;;;;;4981716;28;20790;-76
2022/08/15 08:49:23;;;;;;;3.00;2.23;;;;;;;;;;5008929;28;20921;-78
2022/08/15 08:52:08;;;;;;;2.80;2.30;;;;;;;;;;4957556;28;21115;-79
2022/08/15 08:54:37;;;;;;;2.50;1.97;;;;;;;;;;5011618;28;21009;-79
2022/08/15 08:57:04;;;;;;;3.30;2.20;;;;;;;;;;5002017;28;20519;-80
2022/08/15 08:59:34;;;;;;;1.97;1.70;;;;;;;;;;5000133;28;20475;-80
2022/08/15 09:02:06;;;;;;;6.73;2.67;;;;;;;;;;4941333;28;20449;-79
2022/08/15 09:04:59;;;;;;;2.77;2.00;;;;;;;;;;4990671;28;20429;-79
2022/08/15 09:08:04;;;;;;;2.33;2.13;;;;;;;;;;4964199;28;20452;-80
2022/08/15 09:16:02;;;;;;;4.67;3.10;;;;;;;;;;4983863;28;20459;-80
2022/08/15 09:18:30;;;;;;;4.23;3.87;;;;;;;;;;4969556;28;20444;-82
2022/08/15 09:21:25;;;;;;;4.43;2.93;;;;;;;;;;5007187;28;20530;-77
2022/08/15 09:23:51;;;;;;;4.30;2.67;;;;;;;;;;4998559;28;20432;-79
2022/08/15 09:26:17;;;;;;;3.53;3.00;;;;;;;;;;5002799;28;20443;-78
2022/08/15 09:28:56;;;;;;;3.80;2.80;;;;;;;;;;5003150;28;20432;-77
2022/08/15 09:31:24;;;;;;;2.83;2.50;;;;;;;;;;4993621;28;20472;-77
2022/08/15 09:34:09;;;;;;;3.83;2.40;;;;;;;;;;5000133;28;20433;-77
2022/08/15 09:36:37;;;;;;;5.83;3.80;;;;;;;;;;4977399;28;20435;-78
2022/08/15 09:39:09;;;;;;;3.13;2.00;;;;;;;;;;5008720;28;20459;-79
2022/08/15 09:41:55;;;;;;;5.33;3.90;;;;;;;;;;4987264;28;20444;-81
2022/08/15 09:44:31;;;;;;;8.67;6.17;;;;;;;;;;4983910;28;20471;-79
2022/08/15 09:47:08;;;;;;;4.07;3.40;;;;;;;;;;4979653;28;20550;-79
2022/08/15 09:50:00;;;;;;;6.20;4.70;;;;;;;;;;4987590;28;20459;-79
2022/08/15 09:52:31;;;;;;;3.80;2.70;;;;;;;;;;4976974;28;20440;-80
2022/08/15 09:55:01;;;;;;;5.43;2.77;;;;;;;;;;4992123;28;20518;-78
2022/08/15 09:57:31;;;;;;;2.87;2.47;;;;;;;;;;4978440;28;20428;-78
2022/08/15 10:00:02;;;;;;;2.80;2.30;;;;;;;;;;4980664;28;20543;-80
2022/08/15 10:02:31;;;;;;;2.60;2.33;;;;;;;;;;4961284;28;20956;-80
2022/08/15 10:04:59;;;;;;;2.67;2.20;;;;;;;;;;4972040;28;20437;-80
2022/08/15 10:07:45;;;;;;;3.97;2.87;;;;;;;;;;5000345;28;20435;-79
2022/08/15 10:10:18;;;;;;;2.93;2.20;;;;;;;;;;5006144;28;20439;-82
2022/08/15 10:13:03;;;;;;;2.97;2.67;;;;;;;;;;5001578;28;20425;-82
2022/08/15 10:15:43;;;;;;;3.40;2.83;;;;;;;;;;5009386;28;20441;-82
2022/08/15 10:18:29;;;;;;;3.00;2.37;;;;;;;;;;4979825;28;20682;-79
2022/08/15 10:21:19;;;;;;;5.23;3.13;;;;;;;;;;4970428;28;20552;-77
2022/08/15 10:23:50;;;;;;;3.27;2.97;;;;;;;;;;4969723;28;20503;-76
2022/08/15 10:26:37;;;;;;;3.60;2.67;;;;;;;;;;4969546;28;20531;-77
2022/08/15 10:29:23;;;;;;;6.40;3.60;;;;;;;;;;4967139;28;20441;-78
2022/08/15 10:35:27;;;;;;;3.40;3.10;;;;;;;;;;5006710;28;20437;-78
2022/08/15 10:37:53;;;;;;;3.83;3.00;;;;;;;;;;4964705;28;20438;-77
2022/08/15 10:40:20;;;;;;;4.17;2.60;;;;;;;;;;4994569;28;20480;-78
2022/08/15 10:42:46;;;;;;;3.87;2.70;;;;;;;;;;4990587;28;20478;-78
2022/08/15 10:45:27;;;;;;;4.03;2.70;;;;;;;;;;5004939;28;20436;-78
2022/08/15 10:47:56;;;;;;;3.63;2.50;;;;;;;;;;5001833;28;20185;-78
2022/08/15 10:50:51;;;;;;;2.23;1.97;;;;;;;;;;5010976;28;20527;-78
2022/08/15 10:53:24;;;;;;;3.23;2.50;;;;;;;;;;4916021;28;20484;-79
2022/08/15 10:55:50;;;;;;;5.40;2.50;;;;;;;;;;4996413;28;20847;-79
2022/08/15 10:58:23;;;;;;;3.77;2.20;;;;;;;;;;4967438;28;20428;-78
2022/08/15 11:00:50;;;;;;;3.50;3.10;;;;;;;;;;4999614;28;20471;-81
2022/08/15 11:03:39;;;;;;;2.80;2.30;;;;;;;;;;4980459;28;20482;-79
2022/08/15 11:06:06;;;;;;;3.53;2.20;;;;;;;;;;5004746;28;20553;-79
2022/08/15 11:08:34;;;;;;;2.73;2.43;;;;;;;;;;4952215;28;20429;-79
2022/08/15 11:11:00;;;;;;;2.80;2.10;;;;;;;;;;4994574;28;20469;-81
2022/08/15 11:13:31;;;;;;;2.30;1.90;;;;;;;;;;4978582;28;20431;-79
2022/08/15 11:15:58;;;;;;;3.70;2.43;;;;;;;;;;5007042;28;20989;-79
2022/08/15 11:18:33;;;;;;;2.20;1.90;;;;;;;;;;5005162;28;20447;-79
2022/08/15 11:21:26;;;;;;;3.60;2.30;;;;;;;;;;5003505;28;20506;-79
2022/08/15 11:23:55;;;;;;;2.40;2.07;;;;;;;;;;5003369;28;20432;-80
2022/08/15 11:26:45;;;;;;;3.23;2.50;;;;;;;;;;5004910;28;20439;-81
2022/08/15 11:29:32;;;;;;;2.97;2.00;;;;;;;;;;4985594;28;20448;-81
2022/08/15 11:31:59;;;;;;;3.10;2.80;;;;;;;;;;5014494;28;20432;-81
2022/08/15 11:34:29;;;;;;;3.03;2.47;;;;;;;;;;5000208;28;20452;-82
2022/08/15 11:36:56;;;;;;;3.13;2.10;;;;;;;;;;5013415;28;20432;-81
2022/08/15 11:39:22;;;;;;;2.80;2.37;;;;;;;;;;4989318;28;20460;-81
2022/08/15 11:41:50;;;;;;;3.20;2.80;;;;;;;;;;5003745;28;20573;-81
2022/08/15 11:44:17;;;;;;;5.20;2.40;;;;;;;;;;5000199;28;20428;-80
2022/08/15 11:46:47;;;;;;;2.33;2.00;;;;;;;;;;4989364;28;20459;-80
2022/08/15 11:49:16;;;;;;;2.67;2.20;;;;;;;;;;5000880;28;20428;-80
2022/08/15 11:51:43;;;;;;;3.70;2.70;;;;;;;;;;4998273;28;20455;-81
2022/08/15 11:54:12;;;;;;;2.83;2.53;;;;;;;;;;4971554;28;21108;-81
2022/08/15 11:56:50;;;;;;;2.97;2.40;;;;;;;;;;5012580;28;20427;-79
2022/08/15 11:59:20;;;;;;;3.17;2.53;;;;;;;;;;4995982;28;20482;-79
2022/08/15 12:01:59;;;;;;;3.07;2.37;;;;;;;;;;5009879;28;20443;-80
2022/08/15 12:04:33;;;;;;;3.30;2.87;;;;;;;;;;5007330;28;20440;-81
2022/08/15 12:10:08;;;;;;;3.77;2.27;;;;;;;;;;4968261;28;21091;-82
2022/08/15 12:15:42;;;;;;;2.93;2.37;;;;;;;;;;4999352;28;20601;-80
2022/08/15 12:18:12;;;;;;;3.20;2.90;;;;;;;;;;4982380;28;20540;-82
2022/08/15 12:20:41;;;;;;;3.10;2.23;;;;;;;;;;4990481;28;20537;-81
2022/08/15 12:23:41;;;;;;;2.60;2.40;;;;;;;;;;4987195;28;20443;-83
2022/08/15 12:26:13;;;;;;;2.60;2.13;;;;;;;;;;4958412;28;20428;-80
2022/08/15 12:29:08;;;;;;;3.50;2.00;;;;;;;;;;4979007;28;20451;-80
2022/08/15 12:31:36;;;;;;;4.10;2.37;;;;;;;;;;4985521;28;20522;-79
2022/08/15 12:34:04;;;;;;;3.10;2.70;;;;;;;;;;4981071;28;20458;-78
2022/08/15 12:36:31;;;;;;;3.50;2.50;;;;;;;;;;4979489;28;20432;-79
2022/08/15 12:38:59;;;;;;;4.17;2.40;;;;;;;;;;4985428;28;20462;-79
2022/08/15 12:41:28;;;;;;;3.13;2.83;;;;;;;;;;4992612;28;20428;-78
2022/08/15 12:43:54;;;;;;;3.30;2.80;;;;;;;;;;4977680;28;20455;-79
2022/08/15 12:46:21;;;;;;;4.53;3.17;;;;;;;;;;5005951;28;20464;-80
2022/08/15 12:48:50;;;;;;;6.07;2.50;;;;;;;;;;4996863;28;20477;-80
2022/08/15 12:51:17;;;;;;;5.07;2.77;;;;;;;;;;5006223;28;20440;-79
2022/08/15 12:53:43;;;;;;;3.83;2.80;;;;;;;;;;4970776;28;20939;-79
2022/08/15 12:56:09;;;;;;;4.20;2.90;;;;;;;;;;5005211;28;20436;-81
2022/08/15 12:58:36;;;;;;;2.80;2.50;;;;;;;;;;4976300;28;20448;-80
2022/08/15 13:01:33;;;;;;;6.03;3.23;;;;;;;;;;4976827;28;20518;-80
2022/08/15 13:04:04;;;;;;;4.50;2.80;;;;;;;;;;4924771;28;20436;-81
2022/08/15 13:07:10;;;;;;;3.27;2.80;;;;;;;;;;5002222;28;21465;-79
2022/08/15 13:10:05;;;;;;;3.53;2.63;;;;;;;;;;5001569;28;20439;-79
2022/08/15 13:16:17;;;;;;;3.40;2.97;;;;;;;;;;4990455;28;20451;-79
2022/08/15 13:18:43;;;;;;;6.57;2.83;;;;;;;;;;4977749;28;20443;-79
2022/08/15 13:24:02;;;;;;;3.40;3.00;;;;;;;;;;5006206;28;20447;-79
2022/08/15 13:26:28;;;;;;;8.40;7.50;;;;;;;;;;4980088;28;20453;-81
2022/08/15 13:28:55;;;;;;;6.70;5.60;;;;;;;;;;4999694;28;20497;-79
2022/08/15 13:31:21;;;;;;;11.23;8.93;;;;;;;;;;4933694;28;20455;-79
2022/08/15 13:33:47;;;;;;;4.30;3.10;;;;;;;;;;4973280;28;20448;-79
2022/08/15 13:36:15;;;;;;;4.53;3.70;;;;;;;;;;4978884;28;20905;-78
2022/08/15 13:39:07;;;;;;;3.10;2.80;;;;;;;;;;4986536;28;20425;-78
2022/08/15 13:41:33;;;;;;;3.40;3.00;;;;;;;;;;4975379;28;20442;-79
2022/08/15 13:44:00;;;;;;;5.93;2.63;;;;;;;;;;5006820;28;20858;-81
2022/08/15 13:46:30;;;;;;;4.83;2.80;;;;;;;;;;4971736;28;20189;-79
2022/08/15 13:49:03;;;;;;;5.40;3.90;;;;;;;;;;4986941;28;20448;-79
2022/08/15 13:51:39;;;;;;;5.63;3.40;;;;;;;;;;4962769;28;20454;-78
2022/08/15 13:54:08;;;;;;;4.10;3.57;;;;;;;;;;4989949;28;20440;-79
2022/08/15 13:56:34;;;;;;;3.30;3.00;;;;;;;;;;4982780;28;20436;-78
2022/08/15 13:59:01;;;;;;;5.33;3.93;;;;;;;;;;4993705;28;20500;-80
2022/08/15 14:01:32;;;;;;;4.80;3.30;;;;;;;;;;4970869;28;20452;-81
2022/08/15 14:04:01;;;;;;;4.47;3.33;;;;;;;;;;4963293;28;20528;-78
2022/08/15 14:06:59;;;;;;;5.63;2.70;;;;;;;;;;4975719;28;20523;-81
2022/08/15 14:09:30;;;;;;;4.27;3.40;;;;;;;;;;4995667;28;20527;-82
2022/08/15 14:12:35;;;;;;;3.33;3.03;;;;;;;;;;4982786;28;20774;-80
2022/08/15 14:15:04;;;;;;;4.00;3.60;;;;;;;;;;5005692;28;20432;-79
2022/08/15 14:17:30;;;;;;;3.50;3.20;;;;;;;;;;4990676;28;21179;-84
2022/08/15 14:20:13;;;;;;;3.70;2.77;;;;;;;;;;4988279;28;20480;-79
2022/08/15 14:22:39;;;;;;;6.23;2.80;;;;;;;;;;4964367;28;21006;-80
2022/08/15 14:25:16;;;;;;;;;;;;;;;;;;;;;
2022/08/15 14:27:54;;;;;;;3.60;3.20;;;;;;;;;;4978166;28;20431;-79
2022/08/15 14:30:21;;;;;;;3.97;3.57;;;;;;;;;;4969619;28;20451;-79
2022/08/15 14:33:05;;;;;;;3.90;3.40;;;;;;;;;;4980149;28;22160;-80
2022/08/15 14:35:31;;;;;;;6.40;3.27;;;;;;;;;;5002071;28;20440;-79
2022/08/15 14:37:59;;;;;;;3.90;3.50;;;;;;;;;;4982294;28;21168;-78
2022/08/15 14:40:27;;;;;;;7.60;3.60;;;;;;;;;;4979870;28;20484;-78
2022/08/15 14:43:03;;;;;;;6.40;3.83;;;;;;;;;;4976947;28;20444;-79
2022/08/15 14:45:38;;;;;;;4.80;3.80;;;;;;;;;;5000148;28;20463;-80
2022/08/15 14:48:14;;;;;;;6.20;3.70;;;;;;;;;;4979693;28;20546;-80
2022/08/15 14:51:06;;;;;;;4.40;3.83;;;;;;;;;;4990398;28;21012;-79
2022/08/15 14:53:39;;;;;;;5.27;4.40;;;;;;;;;;4949919;28;20444;-78
2022/08/15 14:56:06;;;;;;;5.00;3.23;;;;;;;;;;4994390;28;20440;-78
2022/08/15 14:58:33;;;;;;;8.03;3.73;;;;;;;;;;4966880;28;20981;-78
2022/08/15 15:00:59;;;;;;;10.33;3.53;;;;;;;;;;4998038;28;20538;-76
2022/08/15 15:03:31;;;;;;;6.70;3.43;;;;;;;;;;4984740;28;20431;-78
2022/08/15 15:05:57;;;;;;;7.60;2.93;;;;;;;;;;4983008;28;21222;-80
2022/08/15 15:08:27;;;;;;;3.40;3.00;;;;;;;;;;4982030;28;20427;-79
2022/08/15 15:10:53;;;;;;;3.50;3.00;;;;;;;;;;4968692;28;20939;-77
2022/08/15 15:13:21;;;;;;;5.00;3.13;;;;;;;;;;4980345;28;20443;-80
2022/08/15 15:15:52;;;;;;;4.03;3.60;;;;;;;;;;4981324;28;20478;-79
2022/08/15 15:19:02;;;;;;;4.80;3.50;;;;;;;;;;4972847;28;20443;-77
2022/08/15 15:21:13;;;;;;;4.57;3.17;;;;;;;;;;4981652;28;20483;-79
2022/08/15 15:23:42;;;;;;;4.13;3.40;;;;;;;;;;4967731;28;20935;-78
2022/08/15 15:26:11;;;;;;;2.93;2.60;;;;;;;;;;4971101;28;20460;-79
2022/08/15 15:28:55;;;;;;;12.33;3.37;;;;;;;;;;4992773;28;20435;-79
2022/08/15 15:31:27;;;;;;;4.80;3.10;;;;;;;;;;4979766;28;20471;-79
2022/08/15 15:34:46;;;;;;;4.23;2.50;;;;;;;;;;4998429;28;20482;-78
2022/08/15 15:37:06;;;;;;;5.33;2.83;;;;;;;;;;5005139;28;20448;-79
2022/08/15 15:39:32;;;;;;;3.50;3.20;;;;;;;;;;4982147;28;21307;-79
2022/08/15 15:41:59;;;;;;;3.40;2.80;;;;;;;;;;5000771;28;21111;-79
2022/08/15 15:44:25;;;;;;;3.20;2.23;;;;;;;;;;4988170;28;21834;-79
2022/08/15 15:46:52;;;;;;;3.40;2.60;;;;;;;;;;4985316;28;20451;-78
2022/08/15 15:49:33;;;;;;;3.90;2.70;;;;;;;;;;4944151;28;20444;-78
2022/08/15 15:52:13;;;;;;;;;;;;;;;;;;;;;
2022/08/15 15:54:42;;;;;;;2.50;2.00;;;;;;;;;;4968056;28;20819;-80
2022/08/15 15:57:14;;;;;;;3.33;2.40;;;;;;;;;;4991209;28;20996;-79
2022/08/15 15:59:40;;;;;;;3.73;3.40;;;;;;;;;;4980393;28;20479;-78
2022/08/15 16:02:20;;;;;;;4.57;2.67;;;;;;;;;;4999892;28;20499;-78
2022/08/15 16:04:46;;;;;;;3.33;1.80;;;;;;;;;;4985532;28;20541;-78
2022/08/15 16:07:21;;;;;;;2.87;1.80;;;;;;;;;;5014630;28;20945;-78
2022/08/15 16:09:47;;;;;;;2.60;2.17;;;;;;;;;;4970916;28;20439;-80
2022/08/15 16:12:19;;;;;;;2.60;2.00;;;;;;;;;;5012281;28;20439;-77
2022/08/15 16:14:48;;;;;;;3.97;2.20;;;;;;;;;;4974903;28;20269;-79
2022/08/15 16:17:16;;;;;;;2.10;1.60;;;;;;;;;;5014051;28;20447;-78
2022/08/15 16:19:56;;;;;;;2.60;1.97;;;;;;;;;;5012490;28;20475;-78
2022/08/15 16:22:27;;;;;;;2.83;1.53;;;;;;;;;;5011045;28;20436;-78
2022/08/15 16:25:03;;;;;;;2.60;1.63;;;;;;;;;;4942246;28;21176;-79